Time;durP1;ratioP1;P1;durP2;ratioP2;P2;SDS_P1;SDS_P2;PMS_P1;PMS_P2;Temp;Humidity;BMP_temperature;BMP_pressure;BME280_temperature;BME280_humidity;BME280_pressure;Samples;Min_cycle;Max_cycle;Signal;HPM_P1;HPM_P2
2022/05/04 00:00:09;;;;;;;11.65;8.73;;;;;;;11.90;94.98;98154.94;1638230;85;28090;-83
2022/05/04 00:02:38;;;;;;;12.13;9.20;;;;;;;11.93;95.24;98152.09;1648094;84;28082;-83
2022/05/04 00:05:08;;;;;;;12.25;9.73;;;;;;;11.92;95.43;98156.50;1745722;80;28459;-83
2022/05/04 00:07:34;;;;;;;13.45;8.85;;;;;;;11.94;95.67;98157.70;1766498;80;28060;-83
2022/05/04 00:10:00;;;;;;;12.95;9.78;;;;;;;11.96;95.96;98158.39;1720685;81;28187;-83
2022/05/04 00:12:28;;;;;;;12.95;9.60;;;;;;;11.94;96.07;98160.32;1719730;81;28050;-83
2022/05/04 00:14:55;;;;;;;13.15;9.83;;;;;;;11.88;96.20;98164.73;1766240;80;28107;-83
2022/05/04 00:17:22;;;;;;;11.05;9.15;;;;;;;11.78;96.20;98164.64;1773482;80;28106;-83
2022/05/04 00:19:54;;;;;;;10.80;8.50;;;;;;;11.84;96.52;98165.44;1731132;81;27998;-83
2022/05/04 00:22:23;;;;;;;13.95;9.40;;;;;;;11.89;96.88;98162.48;1730667;81;28033;-82
2022/05/04 00:24:55;;;;;;;12.35;9.28;;;;;;;11.93;97.15;98166.04;1716577;81;28091;-82
2022/05/04 00:27:21;;;;;;;11.65;8.78;;;;;;;11.88;97.23;98168.20;1710825;81;28070;-82
2022/05/04 00:29:49;;;;;;;11.15;9.60;;;;;;;11.69;97.12;98173.17;1716133;81;28093;-83
2022/05/04 00:32:17;;;;;;;11.40;8.65;;;;;;;11.47;97.06;98174.02;1676889;83;27999;-82
2022/05/04 00:34:43;;;;;;;13.20;8.70;;;;;;;11.35;97.19;98174.16;1706528;83;28087;-83
2022/05/04 00:37:10;;;;;;;11.38;8.65;;;;;;;11.30;97.38;98174.48;1722031;81;28098;-83
2022/05/04 00:39:36;;;;;;;12.60;9.05;;;;;;;11.23;97.64;98182.00;1692966;83;28073;-83
2022/05/04 00:42:18;;;;;;;12.45;8.75;;;;;;;11.17;97.89;98183.77;1750158;80;28142;-83
2022/05/04 00:44:47;;;;;;;11.12;8.70;;;;;;;11.13;98.16;98179.70;1752478;80;28091;-84
2022/05/04 00:47:14;;;;;;;10.93;8.80;;;;;;;11.08;98.44;98184.92;1735360;81;28095;-83
2022/05/04 00:49:41;;;;;;;9.25;7.80;;;;;;;11.02;98.69;98185.42;1732244;81;28028;-83
2022/05/04 00:52:11;;;;;;;12.23;8.63;;;;;;;10.95;98.87;98190.27;1691315;83;28100;-83
2022/05/04 00:54:38;;;;;;;10.68;8.33;;;;;;;10.90;99.11;98194.55;1709221;83;28147;-84
2022/05/04 00:57:13;;;;;;;10.58;8.65;;;;;;;10.98;99.62;98193.95;1773265;80;28055;-84
2022/05/04 00:59:39;;;;;;;11.33;8.30;;;;;;;11.03;100.00;98193.13;1724954;81;28111;-83
2022/05/04 01:02:06;;;;;;;10.70;8.25;;;;;;;11.14;100.00;98191.84;1726019;80;28523;-83
2022/05/04 01:04:32;;;;;;;11.28;8.00;;;;;;;11.26;100.00;98190.08;1760965;80;28099;-84
2022/05/04 01:06:58;;;;;;;11.45;8.05;;;;;;;11.34;100.00;98194.27;1743967;81;28066;-84
2022/05/04 01:09:25;;;;;;;10.30;8.15;;;;;;;11.38;100.00;98196.17;1721480;81;28153;-82
2022/05/04 01:11:51;;;;;;;9.48;7.53;;;;;;;11.39;100.00;98192.13;1714098;81;28080;-83
2022/05/04 01:14:18;;;;;;;10.90;8.40;;;;;;;11.34;100.00;98191.66;1717025;80;28124;-82
2022/05/04 01:16:48;;;;;;;11.10;7.87;;;;;;;11.29;100.00;98194.60;1761923;80;28163;-83
2022/05/04 01:19:14;;;;;;;12.00;8.78;;;;;;;11.21;100.00;98193.53;1757919;80;28073;-82
2022/05/04 01:21:41;;;;;;;13.28;9.03;;;;;;;11.03;100.00;98199.67;1757034;80;28088;-83
2022/05/04 01:24:08;;;;;;;12.45;8.58;;;;;;;10.87;100.00;98198.69;1764428;80;28122;-82
2022/05/04 01:26:34;;;;;;;10.98;8.05;;;;;;;10.81;100.00;98206.16;1768545;79;43543;-82
2022/05/04 01:29:01;;;;;;;10.15;8.73;;;;;;;10.86;100.00;98207.48;1755521;80;28121;-82
2022/05/04 01:31:27;;;;;;;10.72;7.62;;;;;;;10.81;100.00;98207.47;1701815;81;28709;-82
2022/05/04 01:33:55;;;;;;;9.68;7.92;;;;;;;10.68;100.00;98208.03;1759185;80;28159;-82
2022/05/04 01:36:21;;;;;;;11.12;8.83;;;;;;;10.54;100.00;98210.34;1762554;80;28008;-82
2022/05/04 01:38:48;;;;;;;10.75;8.58;;;;;;;10.44;100.00;98208.88;1735038;81;28066;-83
2022/05/04 01:43:59;;;;;;;10.63;7.60;;;;;;;10.39;100.00;98205.77;1732858;81;27999;-82
2022/05/04 01:46:26;;;;;;;10.35;7.55;;;;;;;10.36;100.00;98207.78;1726988;81;28159;-83
2022/05/04 01:48:53;;;;;;;10.23;7.90;;;;;;;10.37;100.00;98210.73;1736519;81;28123;-83
2022/05/04 01:51:19;;;;;;;10.90;8.90;;;;;;;10.50;100.00;98203.67;1729398;81;28107;-82
2022/05/04 01:53:46;;;;;;;12.03;9.00;;;;;;;10.65;100.00;98206.46;1714431;83;28177;-82
2022/05/04 01:56:13;;;;;;;12.63;8.73;;;;;;;10.80;100.00;98203.20;1712722;82;28158;-82
2022/05/04 01:58:39;;;;;;;12.90;9.65;;;;;;;10.90;100.00;98208.95;1712489;83;28135;-83
2022/05/04 02:01:06;;;;;;;12.43;8.93;;;;;;;10.93;100.00;98200.48;1757935;80;42794;-82
2022/05/04 02:03:32;;;;;;;12.43;9.28;;;;;;;10.91;100.00;98203.21;1736158;81;28142;-82
2022/05/04 02:05:58;;;;;;;12.73;9.05;;;;;;;10.93;100.00;98204.41;1713720;83;28005;-83
2022/05/04 02:08:25;;;;;;;11.38;8.55;;;;;;;10.95;100.00;98213.84;1710012;82;28103;-82
2022/05/04 02:10:51;;;;;;;12.68;8.75;;;;;;;10.85;100.00;98213.70;1714099;83;28020;-83
2022/05/04 02:13:17;;;;;;;13.10;9.58;;;;;;;10.84;100.00;98206.78;1714462;83;28093;-82
2022/05/04 02:15:43;;;;;;;11.78;8.20;;;;;;;10.84;100.00;98196.78;1707313;83;28111;-82
2022/05/04 02:18:10;;;;;;;12.68;9.90;;;;;;;10.82;100.00;98199.51;1745872;80;28022;-82
2022/05/04 02:20:36;;;;;;;9.38;8.13;;;;;;;10.83;100.00;98197.73;1705539;83;28079;-82
2022/05/04 02:23:02;;;;;;;10.90;8.43;;;;;;;10.85;100.00;98198.46;1758914;80;28105;-83
2022/05/04 02:25:29;;;;;;;12.07;8.83;;;;;;;10.81;100.00;98195.69;1759409;80;28023;-82
2022/05/04 02:27:55;;;;;;;14.40;9.90;;;;;;;10.75;100.00;98189.59;1736030;81;28128;-83
2022/05/04 02:30:27;;;;;;;21.17;12.60;;;;;;;10.71;100.00;98189.00;1725885;80;44187;-82
2022/05/04 02:33:00;;;;;;;19.23;11.63;;;;;;;10.68;100.00;98189.72;1718299;80;28149;-83
2022/05/04 02:38:11;;;;;;;13.68;10.23;;;;;;;10.61;100.00;98198.95;1697872;83;28049;-83
2022/05/04 02:40:37;;;;;;;14.70;10.08;;;;;;;10.60;100.00;98196.81;1725872;80;28023;-83
2022/05/04 02:43:04;;;;;;;15.53;10.50;;;;;;;10.62;100.00;98201.94;1731950;81;28187;-82
2022/05/04 02:45:30;;;;;;;14.70;9.88;;;;;;;10.64;100.00;98200.02;1699275;83;28099;-82
2022/05/04 02:47:57;;;;;;;13.13;9.28;;;;;;;10.69;100.00;98196.63;1757607;80;28156;-82
2022/05/04 02:50:27;;;;;;;13.32;9.48;;;;;;;10.73;100.00;98198.89;1708634;81;28144;-83
2022/05/04 02:52:54;;;;;;;13.78;10.25;;;;;;;10.76;100.00;98193.42;1723010;81;28195;-83
2022/05/04 02:55:20;;;;;;;17.00;11.90;;;;;;;10.79;100.00;98193.68;1700218;83;28111;-82
2022/05/04 02:57:46;;;;;;;23.83;13.30;;;;;;;10.81;100.00;98199.62;1689799;83;28127;-83
2022/05/04 03:00:13;;;;;;;18.23;11.48;;;;;;;10.78;100.00;98199.86;1690385;83;28138;-83
2022/05/04 03:02:40;;;;;;;18.92;11.55;;;;;;;10.79;100.00;98201.06;1723478;80;28101;-82
2022/05/04 03:05:07;;;;;;;20.30;12.70;;;;;;;10.79;100.00;98207.61;1690096;83;28068;-82
2022/05/04 03:07:53;;;;;;;15.90;10.60;;;;;;;10.81;100.00;98212.23;1729536;81;28180;-82
2022/05/04 03:10:20;;;;;;;16.27;10.25;;;;;;;10.82;100.00;98209.98;1690445;83;28159;-83
2022/05/04 03:12:46;;;;;;;15.05;10.55;;;;;;;10.86;100.00;98208.80;1729151;82;28155;-83
2022/05/04 03:15:13;;;;;;;15.55;10.15;;;;;;;10.92;100.00;98207.50;1711004;82;28139;-83
2022/05/04 03:17:40;;;;;;;12.28;9.63;;;;;;;10.95;100.00;98205.14;1725893;82;28080;-83
2022/05/04 03:20:07;;;;;;;11.78;9.30;;;;;;;10.94;100.00;98216.56;1715474;82;28101;-83
2022/05/04 03:22:34;;;;;;;11.70;8.68;;;;;;;11.01;100.00;98212.08;1713570;81;28101;-83
2022/05/04 03:25:00;;;;;;;13.32;8.93;;;;;;;11.06;100.00;98207.32;1711527;81;28146;-83
2022/05/04 03:27:26;;;;;;;16.57;11.63;;;;;;;11.12;100.00;98209.48;1712780;81;28124;-82
2022/05/04 03:29:52;;;;;;;42.27;21.00;;;;;;;11.20;100.00;98207.57;1716721;82;28092;-83
2022/05/04 03:32:19;;;;;;;38.38;21.17;;;;;;;11.29;100.00;98207.70;1714492;82;28103;-83
2022/05/04 03:34:47;;;;;;;23.10;14.73;;;;;;;11.37;100.00;98210.22;1717497;81;28218;-83
2022/05/04 03:37:14;;;;;;;26.25;15.85;;;;;;;11.36;100.00;98208.55;1714727;82;27992;-83
2022/05/04 03:39:40;;;;;;;17.45;10.10;;;;;;;11.33;100.00;98203.92;1709218;81;28079;-83
2022/05/04 03:42:07;;;;;;;15.80;11.15;;;;;;;11.28;100.00;98210.45;1717616;81;28093;-83
2022/05/04 03:44:33;;;;;;;13.70;9.28;;;;;;;11.23;100.00;98212.13;1722235;82;28013;-83
2022/05/04 03:46:59;;;;;;;10.15;7.70;;;;;;;11.22;100.00;98218.30;1718503;82;28101;-83
2022/05/04 03:49:26;;;;;;;12.58;8.88;;;;;;;11.19;100.00;98229.47;1711160;81;28120;-83
2022/05/04 03:51:53;;;;;;;10.95;9.38;;;;;;;11.05;100.00;98227.91;1709607;82;28010;-83
2022/05/04 03:54:20;;;;;;;11.95;9.50;;;;;;;10.90;100.00;98234.30;1666891;84;28093;-83
2022/05/04 03:56:47;;;;;;;12.07;9.95;;;;;;;10.78;100.00;98232.58;1715309;82;28147;-83
2022/05/04 03:59:14;;;;;;;13.22;9.33;;;;;;;10.71;100.00;98232.66;1716902;81;28180;-83
2022/05/04 04:01:40;;;;;;;12.33;9.85;;;;;;;10.67;100.00;98233.84;1716399;82;28153;-83
2022/05/04 04:04:07;;;;;;;14.45;10.65;;;;;;;10.61;100.00;98248.67;1713673;83;28165;-83
2022/05/04 04:06:33;;;;;;;13.62;11.08;;;;;;;10.61;100.00;98248.67;1710981;81;28085;-83
2022/05/04 04:09:01;;;;;;;13.43;10.23;;;;;;;10.67;100.00;98257.39;1720055;81;28064;-83
2022/05/04 04:11:27;;;;;;;12.95;9.80;;;;;;;10.70;100.00;98259.77;1710397;81;28065;-83
2022/05/04 04:14:01;;;;;;;13.50;9.70;;;;;;;10.64;100.00;98262.83;1719737;81;28075;-83
2022/05/04 04:16:29;;;;;;;13.20;10.43;;;;;;;10.61;100.00;98266.99;1709874;81;28107;-83
2022/05/04 04:18:55;;;;;;;13.30;10.48;;;;;;;10.64;100.00;98270.68;1725200;81;28073;-83
2022/05/04 04:24:07;;;;;;;18.05;11.28;;;;;;;10.61;100.00;98268.30;1711007;81;28069;-83
2022/05/04 04:26:34;;;;;;;17.35;12.05;;;;;;;10.60;100.00;98269.24;1711761;81;28014;-84
2022/05/04 04:29:02;;;;;;;14.75;11.18;;;;;;;10.61;100.00;98276.16;1715025;81;28141;-84
2022/05/04 04:31:28;;;;;;;18.60;11.48;;;;;;;10.62;100.00;98282.59;1709512;81;28091;-83
2022/05/04 04:34:01;;;;;;;13.03;9.98;;;;;;;10.66;100.00;98277.48;1729946;82;28081;-83
2022/05/04 04:36:28;;;;;;;13.10;9.90;;;;;;;10.68;100.00;98280.84;1730695;82;28121;-83
2022/05/04 04:38:55;;;;;;;15.70;10.93;;;;;;;10.70;100.00;98278.93;1731604;81;28096;-83
2022/05/04 04:41:22;;;;;;;15.78;10.40;;;;;;;10.72;100.00;98286.20;1733682;82;28132;-84
2022/05/04 04:43:48;;;;;;;13.68;10.45;;;;;;;10.76;100.00;98284.19;1673297;82;28085;-83
2022/05/04 04:46:14;;;;;;;15.83;10.85;;;;;;;10.93;100.00;98286.42;1732516;81;28097;-84
2022/05/04 04:48:40;;;;;;;14.00;10.90;;;;;;;11.12;100.00;98284.13;1737973;81;28082;-84
2022/05/04 04:51:07;;;;;;;13.25;10.65;;;;;;;11.19;100.00;98285.31;1736311;82;28078;-84
2022/05/04 04:53:33;;;;;;;12.15;10.32;;;;;;;11.14;100.00;98278.28;1735467;82;28019;-83
2022/05/04 04:56:02;;;;;;;12.40;9.60;;;;;;;11.10;100.00;98279.94;1732230;82;28058;-83
2022/05/04 04:58:28;;;;;;;11.25;9.83;;;;;;;11.09;100.00;98282.19;1732185;81;28127;-84
2022/05/04 05:00:54;;;;;;;13.75;10.45;;;;;;;11.07;100.00;98282.32;1732191;82;28151;-83
2022/05/04 05:03:27;;;;;;;14.20;10.28;;;;;;;11.05;100.00;98289.45;1731023;82;28031;-84
2022/05/04 05:05:53;;;;;;;14.63;11.18;;;;;;;10.98;100.00;98294.77;1729640;82;28066;-83
2022/05/04 05:08:20;;;;;;;15.20;12.20;;;;;;;10.90;100.00;98295.81;1735201;81;28062;-83
2022/05/04 05:10:48;;;;;;;15.10;11.83;;;;;;;10.87;100.00;98297.33;1687210;82;28127;-84
2022/05/04 05:13:15;;;;;;;16.70;12.20;;;;;;;10.89;100.00;98301.52;1689596;82;28064;-83
2022/05/04 05:18:29;;;;;;;15.80;11.80;;;;;;;10.91;100.00;98294.37;1699979;83;28144;-82
2022/05/04 05:20:55;;;;;;;14.15;10.98;;;;;;;10.94;100.00;98294.64;1686907;83;28104;-83
2022/05/04 05:23:23;;;;;;;14.03;10.48;;;;;;;10.95;100.00;98298.09;1700607;83;28089;-84
2022/05/04 05:25:49;;;;;;;16.55;11.93;;;;;;;10.93;100.00;98291.66;1694892;83;28097;-83
2022/05/04 05:28:15;;;;;;;14.18;11.20;;;;;;;10.94;100.00;98297.25;1702289;83;28123;-83
2022/05/04 05:30:42;;;;;;;15.70;12.15;;;;;;;10.99;100.00;98300.38;1685992;83;28076;-83
2022/05/04 05:33:09;;;;;;;14.15;10.55;;;;;;;11.06;100.00;98304.69;1685554;83;28096;-83
2022/05/04 05:35:35;;;;;;;13.78;10.90;;;;;;;11.13;100.00;98310.64;1693661;82;28078;-83
2022/05/04 05:38:01;;;;;;;14.98;11.05;;;;;;;11.17;100.00;98312.11;1702562;83;28016;-83
2022/05/04 05:40:27;;;;;;;14.33;10.43;;;;;;;11.20;100.00;98311.88;1690484;82;28120;-83
2022/05/04 05:42:53;;;;;;;17.20;10.58;;;;;;;11.27;100.00;98314.88;1697249;83;28096;-83
2022/05/04 05:45:20;;;;;;;13.83;10.55;;;;;;;11.29;100.00;98312.48;1701877;83;28100;-83
2022/05/04 05:47:46;;;;;;;14.40;11.00;;;;;;;11.31;100.00;98307.14;1703627;83;28208;-83
2022/05/04 05:50:12;;;;;;;12.82;10.13;;;;;;;11.36;100.00;98302.86;1701666;83;28117;-83
2022/05/04 05:52:39;;;;;;;14.85;11.33;;;;;;;11.40;100.00;98306.44;1666726;83;28063;-84
2022/05/04 05:55:06;;;;;;;14.68;10.13;;;;;;;11.44;100.00;98304.45;1695081;83;28131;-84
2022/05/04 05:57:33;;;;;;;13.93;9.75;;;;;;;11.56;100.00;98299.59;1695947;83;28037;-84
2022/05/04 06:00:00;;;;;;;11.95;9.68;;;;;;;11.65;100.00;98298.89;1701091;83;28159;-85
2022/05/04 06:02:28;;;;;;;14.18;9.80;;;;;;;11.70;100.00;98291.03;1657714;83;28177;-85
2022/05/04 06:04:55;;;;;;;14.70;11.12;;;;;;;11.73;100.00;98297.84;1699678;83;28177;-84
2022/05/04 06:07:21;;;;;;;13.93;10.08;;;;;;;11.76;100.00;98292.85;1690278;83;28095;-84
2022/05/04 06:09:48;;;;;;;14.05;11.10;;;;;;;11.80;100.00;98295.11;1707400;81;28127;-84
2022/05/04 06:12:14;;;;;;;12.60;10.43;;;;;;;11.88;100.00;98301.09;1731050;81;28232;-84
2022/05/04 06:14:40;;;;;;;11.00;9.58;;;;;;;11.99;100.00;98306.34;1736608;81;28086;-84
2022/05/04 06:17:06;;;;;;;13.20;9.88;;;;;;;12.12;100.00;98305.25;1726617;81;28091;-84
2022/05/04 06:19:33;;;;;;;16.62;10.72;;;;;;;12.22;100.00;98308.48;1735666;81;28110;-84
2022/05/04 06:21:59;;;;;;;14.93;10.93;;;;;;;12.30;100.00;98310.02;1731361;81;28093;-84
2022/05/04 06:24:28;;;;;;;13.88;10.63;;;;;;;12.42;100.00;98314.30;1739735;81;28170;-83
2022/05/04 06:26:55;;;;;;;14.98;11.48;;;;;;;12.59;100.00;98311.18;1728196;81;28504;-84
2022/05/04 06:34:55;;;;;;;14.58;11.25;;;;;;;12.81;100.00;98308.50;1708066;82;28065;-83
2022/05/04 06:37:21;;;;;;;14.90;11.95;;;;;;;13.00;100.00;98306.03;1714294;82;28100;-83
2022/05/04 06:39:48;;;;;;;16.80;10.28;;;;;;;13.17;100.00;98303.84;1737124;81;28090;-83
2022/05/04 06:42:16;;;;;;;18.55;11.18;;;;;;;13.33;100.00;98309.02;1732090;81;28198;-83
2022/05/04 06:44:42;;;;;;;12.73;10.45;;;;;;;13.38;100.00;98301.58;1703407;82;28010;-84
2022/05/04 06:47:08;;;;;;;14.38;11.48;;;;;;;13.55;100.00;98294.08;1728202;81;28074;-84
2022/05/04 06:49:34;;;;;;;12.73;10.28;;;;;;;13.69;100.00;98287.20;1725111;80;28097;-84
2022/05/04 06:52:01;;;;;;;14.65;10.85;;;;;;;13.75;100.00;98295.85;1724318;82;28138;-84
2022/05/04 06:54:27;;;;;;;16.02;10.85;;;;;;;13.84;100.00;98295.09;1722681;82;28242;-83
2022/05/04 06:56:53;;;;;;;12.43;9.88;;;;;;;13.96;100.00;98292.73;1723114;81;28064;-84
2022/05/04 06:59:19;;;;;;;11.28;9.38;;;;;;;14.07;100.00;98286.55;1724611;82;28083;-84
2022/05/04 07:01:46;;;;;;;15.95;10.98;;;;;;;14.15;100.00;98275.69;1688480;83;28124;-83
2022/05/04 07:04:12;;;;;;;12.90;10.28;;;;;;;14.23;100.00;98272.41;1728202;82;28016;-84
2022/05/04 07:06:38;;;;;;;14.93;10.93;;;;;;;14.34;100.00;98281.99;1699179;83;28081;-84
2022/05/04 07:09:08;;;;;;;12.28;9.83;;;;;;;14.46;100.00;98284.39;1722067;82;28065;-84
2022/05/04 07:11:36;;;;;;;13.40;10.05;;;;;;;14.61;100.00;98284.38;1683972;82;28150;-84
2022/05/04 07:14:02;;;;;;;14.03;10.43;;;;;;;14.80;100.00;98285.36;1725719;82;28072;-84
2022/05/04 07:16:28;;;;;;;15.18;9.80;;;;;;;14.85;100.00;98276.55;1697753;83;28188;-84
2022/05/04 07:18:55;;;;;;;10.40;8.75;;;;;;;15.06;100.00;98286.48;1704767;82;28103;-84
2022/05/04 07:21:27;;;;;;;9.48;7.30;;;;;;;15.22;100.00;98291.22;1717065;82;28056;-84
2022/05/04 07:23:53;;;;;;;12.63;9.48;;;;;;;15.28;100.00;98291.47;1722891;82;28060;-84
2022/05/04 07:26:19;;;;;;;11.50;8.85;;;;;;;15.31;100.00;98298.28;1724552;82;28165;-84
2022/05/04 07:28:45;;;;;;;12.15;9.13;;;;;;;15.34;100.00;98300.14;1694651;83;28029;-84
2022/05/04 07:31:12;;;;;;;10.88;9.05;;;;;;;15.36;100.00;98294.73;1666996;83;28025;-84
2022/05/04 07:33:40;;;;;;;16.40;10.90;;;;;;;15.41;100.00;98295.14;1719771;82;28081;-84
2022/05/04 07:36:06;;;;;;;12.40;10.05;;;;;;;15.50;100.00;98295.13;1698451;82;28128;-84
2022/05/04 07:38:32;;;;;;;13.62;10.45;;;;;;;15.60;100.00;98304.36;1710482;82;28172;-84
2022/05/04 07:43:43;;;;;;;11.55;9.83;;;;;;;15.75;100.00;98296.86;1713385;82;27987;-84
2022/05/04 07:46:09;;;;;;;14.58;11.03;;;;;;;15.87;100.00;98298.36;1679218;83;28095;-84
2022/05/04 07:48:36;;;;;;;15.35;11.45;;;;;;;15.99;100.00;98303.78;1728165;81;28086;-84
2022/05/04 07:51:02;;;;;;;12.10;9.43;;;;;;;16.07;100.00;98298.63;1718014;82;28004;-84
2022/05/04 07:53:28;;;;;;;11.63;9.33;;;;;;;16.11;100.00;98298.67;1724243;82;28090;-84
2022/05/04 07:55:55;;;;;;;11.50;9.33;;;;;;;16.14;100.00;98291.80;1685539;83;28089;-84
2022/05/04 07:58:22;;;;;;;13.05;10.45;;;;;;;16.14;100.00;98290.48;1698693;82;28077;-84
2022/05/04 08:06:24;;;;;;;18.27;13.28;;;;;;;16.27;100.00;98293.59;1710510;82;28161;-84
2022/05/04 08:08:50;;;;;;;14.05;11.78;;;;;;;16.34;100.00;98303.09;1719142;81;28178;-84
2022/05/04 08:11:18;;;;;;;15.68;10.88;;;;;;;16.42;100.00;98305.02;1735629;82;28085;-83
2022/05/04 08:13:44;;;;;;;15.63;9.28;;;;;;;16.44;100.00;98302.55;1739667;82;28026;-84
2022/05/04 08:16:11;;;;;;;9.93;8.30;;;;;;;16.55;100.00;98307.64;1743980;81;28057;-84
2022/05/04 08:18:40;;;;;;;11.38;8.23;;;;;;;16.65;100.00;98304.97;1742482;80;28113;-84
2022/05/04 08:21:09;;;;;;;8.23;6.62;;;;;;;16.71;100.00;98303.89;1745527;81;28116;-84
2022/05/04 08:23:35;;;;;;;10.08;7.80;;;;;;;16.80;100.00;98309.28;1744016;81;28190;-84
2022/05/04 08:26:02;;;;;;;9.53;8.18;;;;;;;16.91;100.00;98304.58;1740530;81;28096;-84
2022/05/04 08:28:29;;;;;;;10.55;6.53;;;;;;;17.06;100.00;98309.71;1743374;81;28154;-84
2022/05/04 08:30:57;;;;;;;10.35;8.18;;;;;;;17.24;100.00;98307.04;1747100;81;28076;-84
2022/05/04 08:33:23;;;;;;;10.78;8.65;;;;;;;17.40;100.00;98311.67;1745594;81;28024;-84
2022/05/04 08:35:49;;;;;;;10.48;7.22;;;;;;;17.49;100.00;98308.09;1739486;81;28119;-84
2022/05/04 08:38:16;;;;;;;8.78;7.70;;;;;;;17.60;100.00;98310.52;1745548;81;28092;-84
2022/05/04 08:40:44;;;;;;;9.53;6.90;;;;;;;17.69;100.00;98312.23;1735853;80;28068;-84
2022/05/04 08:43:13;;;;;;;11.70;7.67;;;;;;;17.73;100.00;98313.58;1740782;81;28050;-84
2022/05/04 08:45:40;;;;;;;11.93;7.83;;;;;;;17.79;100.00;98312.96;1739456;81;28081;-84
2022/05/04 08:48:11;;;;;;;9.93;8.18;;;;;;;17.92;99.57;98313.88;1747788;81;28144;-84
2022/05/04 08:50:40;;;;;;;;;;;;;;;18.00;98.98;98313.11;1748136;81;28149;-84
2022/05/04 08:53:07;;;;;;;;;;;;;;;18.09;98.42;98310.84;1748627;80;22017;-84
2022/05/04 08:55:38;;;;;;;;;;;;;;;18.16;97.36;98310.06;1751618;80;25998;-84
2022/05/04 08:58:03;;;;;;;;;;;;;;;18.22;96.35;98311.25;1749428;81;24436;-85
2022/05/04 09:00:29;;;;;;;;;;;;;;;18.29;95.24;98310.44;1750029;80;20212;-84
2022/05/04 09:02:54;;;;;;;;;;;;;;;18.36;93.79;98313.29;1750182;80;20768;-85
2022/05/04 09:05:25;;;;;;;;;;;;;;;18.44;92.67;98310.66;1751404;80;21989;-84
2022/05/04 09:07:58;;;;;;;;;;;;;;;18.46;91.45;98310.02;1752381;81;27041;-85
2022/05/04 09:10:27;;;;;;;;;;;;;;;18.42;89.89;98307.36;1727679;81;24495;-84
2022/05/04 09:12:59;;;;;;;;;;;;;;;18.43;88.90;98307.70;1736418;81;20450;-84
2022/05/04 09:15:27;;;;;;;;;;;;;;;18.51;88.46;98300.26;1702250;83;25051;-84
2022/05/04 09:18:07;;;;;;;;;;;;;;;18.55;87.14;98305.59;1700086;83;22120;-84
2022/05/04 09:20:52;;;;;;;;;;;;;;;18.64;86.09;98311.28;1705975;82;26206;-85
2022/05/04 09:23:22;;;;;;;;;;;;;;;18.71;85.08;98310.45;1708387;82;24472;-84
2022/05/04 09:25:49;;;;;;;;;;;;;;;18.77;83.83;98311.14;1735851;81;20211;-84
2022/05/04 09:28:16;;;;;;;;;;;;;;;18.82;83.07;98308.00;1731560;81;25055;-84
2022/05/04 09:30:44;;;;;;;;;;;;;;;18.88;82.52;98312.66;1700688;83;22137;-84
2022/05/04 09:33:12;;;;;;;;;;;;;;;18.95;81.94;98307.05;1699898;83;26067;-84
2022/05/04 09:35:41;;;;;;;;;;;;;;;19.01;80.57;98316.17;1733876;81;24449;-84
2022/05/04 09:46:27;;;;;;;5.65;4.70;;;;;;;19.34;75.66;98311.25;1738535;81;26793;-84
2022/05/04 09:48:56;;;;;;;9.40;4.92;;;;;;;19.51;75.46;98309.45;1718419;82;28009;-84
2022/05/04 09:51:29;;;;;;;4.12;3.67;;;;;;;19.64;74.87;98309.27;1720417;82;28021;-84
2022/05/04 09:56:47;;;;;;;7.70;4.75;;;;;;;19.84;73.33;98302.29;1614557;87;28097;-84
2022/05/04 10:02:14;;;;;;;8.50;5.40;;;;;;;20.01;72.04;98299.44;1588104;88;28115;-84
2022/05/04 10:04:42;;;;;;;5.37;4.60;;;;;;;20.09;71.27;98300.39;1586086;89;28162;-84
2022/05/04 10:07:10;;;;;;;6.92;5.08;;;;;;;19.97;69.50;98298.59;1560515;91;28072;-84
2022/05/04 10:09:36;;;;;;;10.03;5.03;;;;;;;19.83;67.92;98300.13;1577423;90;28164;-84
2022/05/04 10:12:05;;;;;;;8.38;5.50;;;;;;;19.79;66.98;98305.95;1573960;90;28108;-84
2022/05/04 10:14:31;;;;;;;5.87;5.20;;;;;;;19.87;66.89;98293.48;1576310;90;28121;-84
2022/05/04 10:17:17;;;;;;;6.50;5.42;;;;;;;19.97;66.90;98294.11;1575099;89;28117;-84
2022/05/04 10:19:53;;;;;;;6.50;5.10;;;;;;;20.14;66.85;98294.06;1573480;90;28125;-84
2022/05/04 10:22:28;;;;;;;6.25;5.25;;;;;;;20.27;66.27;98291.72;1577019;88;28086;-84
2022/05/04 10:24:58;;;;;;;7.95;5.62;;;;;;;20.34;65.40;98294.89;1587080;88;28107;-84
2022/05/04 10:27:27;;;;;;;10.13;5.42;;;;;;;20.42;64.71;98295.34;1603757;86;28076;-84
2022/05/04 10:32:50;;;;;;;5.10;3.80;;;;;;;20.59;63.85;98297.42;1640906;86;28085;-84
2022/05/04 10:35:40;;;;;;;7.25;5.03;;;;;;;20.60;63.09;98289.78;1635310;86;28085;-84
2022/05/04 10:38:17;;;;;;;6.92;4.40;;;;;;;20.50;61.98;98291.33;1629722;86;28153;-84
2022/05/04 10:40:53;;;;;;;5.72;4.30;;;;;;;20.58;61.74;98293.93;1629975;86;28066;-84
2022/05/04 10:43:47;;;;;;;8.73;5.10;;;;;;;20.61;61.10;98288.28;1639329;84;28185;-84
2022/05/04 10:46:21;;;;;;;5.83;5.12;;;;;;;20.58;60.85;98279.31;1630690;86;28099;-84
2022/05/04 10:48:58;;;;;;;5.55;4.92;;;;;;;20.64;60.17;98294.56;1616118;87;28105;-84
2022/05/04 10:51:27;;;;;;;7.72;5.53;;;;;;;20.54;59.38;98287.81;1646662;86;28093;-84
2022/05/04 10:53:59;;;;;;;7.22;5.50;;;;;;;20.27;57.84;98290.38;1638617;86;28069;-84
2022/05/04 10:56:28;;;;;;;6.47;4.97;;;;;;;20.10;57.11;98287.45;1641314;86;28062;-84
2022/05/04 10:59:02;;;;;;;6.15;4.92;;;;;;;20.13;57.12;98289.78;1641284;86;28217;-84
2022/05/04 11:01:30;;;;;;;6.42;4.80;;;;;;;20.23;57.22;98288.58;1642586;85;28069;-84
2022/05/04 11:04:22;;;;;;;8.33;5.17;;;;;;;20.34;57.20;98282.09;1611882;88;28085;-84
2022/05/04 11:07:08;;;;;;;7.33;5.12;;;;;;;20.39;56.93;98275.76;1639665;86;28094;-84
2022/05/04 11:09:42;;;;;;;6.10;3.95;;;;;;;20.39;56.51;98281.08;1621111;87;28065;-84
2022/05/04 11:12:10;;;;;;;9.00;5.28;;;;;;;20.35;56.03;98279.73;1639220;87;28102;-84
2022/05/04 11:14:36;;;;;;;8.08;4.83;;;;;;;20.29;55.57;98275.91;1620752;87;28096;-84
2022/05/04 11:17:16;;;;;;;6.00;4.22;;;;;;;20.33;55.40;98279.94;1624031;87;28219;-84
2022/05/04 11:19:47;;;;;;;5.22;4.20;;;;;;;20.24;54.92;98282.73;1625989;87;28099;-84
2022/05/04 11:22:18;;;;;;;5.12;4.58;;;;;;;20.09;54.14;98281.30;1628332;86;28061;-84
2022/05/04 11:24:45;;;;;;;4.85;4.37;;;;;;;19.96;53.60;98278.36;1634501;86;28077;-84
2022/05/04 11:27:17;;;;;;;6.65;4.85;;;;;;;19.94;53.47;98279.02;1627010;87;28132;-84
2022/05/04 11:29:44;;;;;;;5.95;4.58;;;;;;;19.98;53.51;98281.66;1625306;87;28088;-84
2022/05/04 11:32:17;;;;;;;6.50;4.25;;;;;;;20.11;53.68;98275.83;1602279;89;28141;-84
2022/05/04 11:34:41;;;;;;;10.28;4.83;;;;;;;20.24;53.71;98278.75;1639139;87;28041;-84
2022/05/04 11:37:11;;;;;;;5.25;4.45;;;;;;;20.31;53.62;98274.41;1611948;88;28097;-84
2022/05/04 11:39:39;;;;;;;5.50;4.30;;;;;;;20.27;53.11;98267.80;1612061;88;28172;-84
2022/05/04 11:42:10;;;;;;;5.60;4.40;;;;;;;20.34;52.95;98276.28;1640099;86;28093;-83
2022/05/04 11:44:41;;;;;;;4.40;3.70;;;;;;;20.41;52.75;98275.89;1639654;86;28108;-84
2022/05/04 11:47:08;;;;;;;8.13;4.67;;;;;;;20.52;52.59;98272.02;1640032;86;28067;-84
2022/05/04 11:49:35;;;;;;;11.83;4.90;;;;;;;20.58;52.41;98273.98;1639062;86;28162;-84
2022/05/04 11:52:04;;;;;;;9.15;4.70;;;;;;;20.66;52.32;98274.45;1639571;86;28112;-84
2022/05/04 11:54:30;;;;;;;7.83;4.47;;;;;;;20.77;52.24;98270.08;1639770;86;28029;-84
2022/05/04 11:56:57;;;;;;;5.17;4.35;;;;;;;20.81;52.02;98267.38;1622105;86;28066;-84
2022/05/04 11:59:33;;;;;;;6.42;4.40;;;;;;;20.88;51.97;98271.01;1625931;87;28099;-84
2022/05/04 12:02:00;;;;;;;5.03;4.53;;;;;;;20.94;51.85;98264.16;1621041;87;28216;-84
2022/05/04 12:04:28;;;;;;;7.10;4.28;;;;;;;21.02;51.65;98264.08;1625110;87;28058;-84
2022/05/04 12:06:57;;;;;;;6.62;4.85;;;;;;;21.09;51.59;98269.03;1621148;87;28104;-84
2022/05/04 12:09:28;;;;;;;12.43;5.03;;;;;;;21.10;51.65;98263.53;1632207;86;28093;-84